createdAt,value
2022-10-11T00:00:44.310Z,6.73
2022-10-11T00:03:14.405Z,6.70
2022-10-11T00:05:43.697Z,6.73
2022-10-11T00:08:12.939Z,6.72
2022-10-11T00:10:41.246Z,6.72
2022-10-11T00:13:09.133Z,6.73
2022-10-11T00:15:39.194Z,6.73
2022-10-11T00:18:07.090Z,6.74
2022-10-11T00:20:34.536Z,6.74
2022-10-11T00:23:03.836Z,6.75
2022-10-11T00:25:31.429Z,6.75
2022-10-11T00:27:58.874Z,6.77
2022-10-11T00:30:26.537Z,6.78
2022-10-11T00:32:54.416Z,6.80
2022-10-11T00:35:21.919Z,6.82
2022-10-11T00:37:49.614Z,6.84
2022-10-11T00:40:20.187Z,6.86
2022-10-11T00:42:48.277Z,6.88
2022-10-11T00:45:33.534Z,6.89
2022-10-11T00:48:06.478Z,6.93
2022-10-11T00:50:35.550Z,6.94
2022-10-11T00:53:07.913Z,6.95
2022-10-11T00:55:40.391Z,6.96
2022-10-11T00:58:10.036Z,6.96
2022-10-11T01:00:37.810Z,6.97
2022-10-11T01:03:06.072Z,6.98
2022-10-11T01:05:37.882Z,6.98
2022-10-11T01:08:07.351Z,6.99
2022-10-11T01:10:35.504Z,6.98
2022-10-11T01:13:28.182Z,6.98
2022-10-11T01:16:15.698Z,6.96
2022-10-11T01:19:12.946Z,6.94
2022-10-11T01:21:55.148Z,6.92
2022-10-11T01:25:01.557Z,6.91
2022-10-11T01:27:35.550Z,6.90
2022-10-11T01:30:27.170Z,6.89
2022-10-11T01:33:12.309Z,6.89
2022-10-11T01:35:51.406Z,6.88
2022-10-11T01:38:35.978Z,6.88
2022-10-11T01:41:20.860Z,6.86
2022-10-11T01:43:53.123Z,6.84
2022-10-11T01:46:21.592Z,6.82
2022-10-11T01:48:53.925Z,6.81
2022-10-11T01:51:26.856Z,6.79
2022-10-11T01:54:09.364Z,6.79
2022-10-11T01:57:16.173Z,6.78
2022-10-11T01:59:59.147Z,6.77
2022-10-11T02:03:03.066Z,6.75
2022-10-11T02:05:53.458Z,6.75
2022-10-11T02:08:48.009Z,6.73
2022-10-11T02:11:26.443Z,6.73
2022-10-11T02:14:17.943Z,6.72
2022-10-11T02:17:01.688Z,6.69
2022-10-11T02:19:34.827Z,6.62
2022-10-11T02:22:07.832Z,6.58
2022-10-11T02:24:41.670Z,6.58
2022-10-11T02:27:11.464Z,6.57
2022-10-11T02:29:42.731Z,6.57
2022-10-11T02:32:11.568Z,6.56
2022-10-11T02:34:55.751Z,6.55
2022-10-11T02:37:49.883Z,6.52
2022-10-11T02:40:26.023Z,6.48
2022-10-11T02:43:04.961Z,6.43
2022-10-11T02:45:59.054Z,6.42
2022-10-11T02:48:29.015Z,6.41
2022-10-11T02:50:58.008Z,6.41
2022-10-11T02:53:26.925Z,6.39
2022-10-11T02:55:55.818Z,6.36
2022-10-11T02:58:24.824Z,6.32
2022-10-11T03:00:52.459Z,6.29
2022-10-11T03:03:20.214Z,6.26
2022-10-11T03:05:48.003Z,6.27
2022-10-11T03:08:17.394Z,6.27
2022-10-11T03:10:45.188Z,6.27
2022-10-11T03:13:17.295Z,6.29
2022-10-11T03:15:42.411Z,6.32
2022-10-11T03:18:10.158Z,6.34
2022-10-11T03:20:38.050Z,6.34
2022-10-11T03:23:05.918Z,6.37
2022-10-11T03:25:33.907Z,6.38
2022-10-11T03:28:02.301Z,6.40
2022-10-11T03:30:30.209Z,6.41
2022-10-11T03:33:00.044Z,6.40
2022-10-11T03:35:28.816Z,6.42
2022-10-11T03:37:56.611Z,6.43
2022-10-11T03:40:24.730Z,6.42
2022-10-11T03:42:54.221Z,6.41
2022-10-11T03:45:22.047Z,6.41
2022-10-11T03:47:49.832Z,6.41
2022-10-11T03:50:18.075Z,6.41
2022-10-11T03:52:45.927Z,6.42
2022-10-11T03:55:14.389Z,6.44
2022-10-11T03:57:42.586Z,6.45
2022-10-11T04:00:10.870Z,6.46
2022-10-11T04:02:39.411Z,6.47
2022-10-11T04:05:08.014Z,6.48
2022-10-11T04:07:35.880Z,6.50
2022-10-11T04:10:04.097Z,6.51
2022-10-11T04:12:31.449Z,6.54
2022-10-11T04:14:58.980Z,6.56
2022-10-11T04:17:26.396Z,6.58
2022-10-11T04:19:53.997Z,6.59
2022-10-11T04:22:21.689Z,6.61
2022-10-11T04:24:49.223Z,6.62
2022-10-11T04:27:17.175Z,6.61
2022-10-11T04:29:45.159Z,6.61
2022-10-11T04:32:12.923Z,6.63
2022-10-11T04:34:40.732Z,6.66
2022-10-11T04:37:08.387Z,6.68
2022-10-11T04:39:38.378Z,6.69
2022-10-11T04:42:06.049Z,6.71
2022-10-11T04:44:33.869Z,6.72
2022-10-11T04:47:01.407Z,6.74
2022-10-11T04:49:29.169Z,6.75
2022-10-11T04:51:57.069Z,6.82
2022-10-11T04:54:25.128Z,6.98
2022-10-11T04:56:52.738Z,7.05
2022-10-11T04:59:20.685Z,7.16
2022-10-11T05:01:49.724Z,7.45
2022-10-11T05:04:17.568Z,7.68
2022-10-11T05:06:46.031Z,8.04
2022-10-11T05:09:13.635Z,8.42
2022-10-11T05:11:41.281Z,8.62
2022-10-11T05:14:08.937Z,8.96
2022-10-11T05:16:36.650Z,9.06
2022-10-11T05:19:04.173Z,9.08
2022-10-11T05:21:31.939Z,9.13
2022-10-11T05:23:59.717Z,9.28
2022-10-11T05:26:27.972Z,9.86
2022-10-11T05:28:55.976Z,10.55
2022-10-11T05:31:23.719Z,11.19
2022-10-11T05:33:52.392Z,11.82
2022-10-11T05:36:20.320Z,12.28
2022-10-11T05:38:47.809Z,12.68
2022-10-11T05:41:17.243Z,12.99
2022-10-11T05:43:45.392Z,13.28
2022-10-11T05:46:13.243Z,13.51
2022-10-11T05:48:41.397Z,13.42
2022-10-11T05:51:10.051Z,12.96
2022-10-11T05:53:38.862Z,12.50
2022-10-11T05:56:22.738Z,12.06
2022-10-11T05:58:50.738Z,11.71
2022-10-11T06:01:23.121Z,11.37
2022-10-11T06:03:51.249Z,11.09
2022-10-11T06:06:19.995Z,10.79
2022-10-11T06:08:48.704Z,10.58
2022-10-11T06:11:24.728Z,10.44
2022-10-11T06:13:58.365Z,10.50
2022-10-11T06:16:26.972Z,10.72
2022-10-11T06:18:57.671Z,11.03
2022-10-11T06:21:26.236Z,11.40
2022-10-11T06:23:59.876Z,11.69
2022-10-11T06:26:24.293Z,11.96
2022-10-11T06:28:52.992Z,12.22
2022-10-11T06:31:20.640Z,12.39
2022-10-11T06:33:48.397Z,12.66
2022-10-11T06:36:17.807Z,12.99
2022-10-11T06:38:45.650Z,13.25
2022-10-11T06:41:23.683Z,13.43
2022-10-11T06:43:52.167Z,13.65
2022-10-11T06:46:24.437Z,13.88
2022-10-11T06:48:52.397Z,14.02
2022-10-11T06:51:22.601Z,14.25
2022-10-11T06:53:53.015Z,14.42
2022-10-11T06:56:21.183Z,14.59
2022-10-11T06:58:50.552Z,14.87
2022-10-11T07:01:19.995Z,15.04
2022-10-11T07:03:48.368Z,15.21
2022-10-11T07:06:19.476Z,15.37
2022-10-11T07:08:48.336Z,15.50
2022-10-11T07:11:21.445Z,15.60
2022-10-11T07:13:54.417Z,15.74
2022-10-11T07:16:24.170Z,15.92
2022-10-11T07:19:00.221Z,15.98
2022-10-11T07:21:27.247Z,15.89
2022-10-11T07:23:54.672Z,15.73
2022-10-11T07:26:22.376Z,15.59
2022-10-11T07:28:50.428Z,15.44
2022-10-11T07:31:22.284Z,15.41
2022-10-11T07:33:50.240Z,15.34
2022-10-11T07:36:18.212Z,15.21
2022-10-11T07:38:47.011Z,15.04
2022-10-11T07:41:14.937Z,14.89
2022-10-11T07:43:43.699Z,14.80
2022-10-11T07:46:11.759Z,14.74
2022-10-11T07:48:39.887Z,14.70
2022-10-11T07:51:15.556Z,14.68
2022-10-11T07:53:46.255Z,14.67
2022-10-11T07:56:17.981Z,14.58
2022-10-11T07:58:51.863Z,14.53
2022-10-11T08:01:20.290Z,14.50
2022-10-11T08:03:48.905Z,14.49
2022-10-11T08:06:21.188Z,14.46
2022-10-11T08:08:49.467Z,14.48
2022-10-11T08:11:31.484Z,14.52
2022-10-11T08:14:00.167Z,14.61
2022-10-11T08:16:28.150Z,14.67
2022-10-11T08:18:56.492Z,14.77
2022-10-11T08:21:26.215Z,14.80
2022-10-11T08:23:53.953Z,14.88
2022-10-11T08:26:21.635Z,14.96
2022-10-11T08:28:50.427Z,14.99
2022-10-11T08:31:18.315Z,15.08
2022-10-11T08:33:45.938Z,15.23
2022-10-11T08:36:13.538Z,15.34
2022-10-11T08:38:41.805Z,15.46
2022-10-11T08:41:48.854Z,15.68
2022-10-11T08:44:58.737Z,16.08
2022-10-11T08:47:17.630Z,16.42
2022-10-11T08:49:45.962Z,16.59
2022-10-11T08:52:25.136Z,16.71
2022-10-11T08:55:29.017Z,16.74
2022-10-11T08:57:57.643Z,16.70
2022-10-11T09:00:29.952Z,16.66
2022-10-11T09:03:38.068Z,16.82
2022-10-11T09:06:22.860Z,16.99
2022-10-11T09:09:12.611Z,17.13
2022-10-11T09:12:10.566Z,17.27
2022-10-11T09:15:01.793Z,17.44
2022-10-11T09:18:10.421Z,17.56
2022-10-11T09:21:07.874Z,17.80
2022-10-11T09:24:01.452Z,18.11
2022-10-11T09:26:56.235Z,18.42
2022-10-11T09:29:48.763Z,18.79
2022-10-11T09:32:22.855Z,19.07
2022-10-11T09:35:01.535Z,19.33
2022-10-11T09:37:37.586Z,19.64
2022-10-11T09:40:31.018Z,19.78
2022-10-11T09:42:59.061Z,19.76
2022-10-11T09:45:26.697Z,19.73
2022-10-11T09:47:56.928Z,19.74
2022-10-11T09:50:29.035Z,19.71
2022-10-11T09:53:01.794Z,19.69
2022-10-11T09:55:50.225Z,19.56
2022-10-11T09:58:31.608Z,19.50
2022-10-11T10:01:08.439Z,19.39
2022-10-11T10:03:42.110Z,19.35
2022-10-11T10:06:23.220Z,19.30
2022-10-11T10:08:51.169Z,19.18
2022-10-11T10:11:19.932Z,19.11
2022-10-11T10:13:51.640Z,19.02
2022-10-11T10:16:33.716Z,18.94
2022-10-11T10:19:05.970Z,18.84
2022-10-11T10:21:48.125Z,18.70
2022-10-11T10:24:38.654Z,18.58
2022-10-11T10:27:26.109Z,18.45
2022-10-11T10:30:12.778Z,18.35
2022-10-11T10:33:06.777Z,18.30
2022-10-11T10:35:41.607Z,18.22
2022-10-11T10:38:36.017Z,18.16
2022-10-11T10:41:13.294Z,18.15
2022-10-11T10:43:43.316Z,18.13
2022-10-11T10:46:46.632Z,18.15
2022-10-11T10:49:52.993Z,18.16
2022-10-11T10:52:32.767Z,18.15
2022-10-11T10:55:15.302Z,18.07
2022-10-11T10:58:29.718Z,18.08
2022-10-11T11:01:15.105Z,18.07
2022-10-11T11:03:53.449Z,18.03
2022-10-11T11:06:41.351Z,17.97
2022-10-11T11:09:25.632Z,17.91
2022-10-11T11:12:04.758Z,17.82
2022-10-11T11:14:57.327Z,17.81
2022-10-11T11:17:45.247Z,17.84
2022-10-11T11:20:53.637Z,17.84
2022-10-11T11:23:40.831Z,17.87
2022-10-11T11:26:40.822Z,17.90
2022-10-11T11:29:25.686Z,17.93
2022-10-11T11:32:30.875Z,17.97
2022-10-11T11:35:17.324Z,17.96
2022-10-11T11:37:47.807Z,17.90
2022-10-11T11:40:34.439Z,17.77
2022-10-11T11:43:16.228Z,17.65
2022-10-11T11:45:57.820Z,17.62
2022-10-11T11:48:26.900Z,17.61
2022-10-11T11:51:06.288Z,17.59
2022-10-11T11:54:17.659Z,17.54
2022-10-11T11:56:56.541Z,17.60
2022-10-11T11:59:38.822Z,17.68
2022-10-11T12:02:54.548Z,17.71
2022-10-11T12:05:30.191Z,17.82
2022-10-11T12:08:06.355Z,17.95
2022-10-11T12:10:55.640Z,18.03
2022-10-11T12:13:40.915Z,18.03
2022-10-11T12:16:17.407Z,17.97
2022-10-11T12:19:01.932Z,17.91
2022-10-11T12:21:38.833Z,17.88
2022-10-11T12:24:16.784Z,17.81
2022-10-11T12:26:47.663Z,17.74
2022-10-11T12:29:29.010Z,17.74
2022-10-11T12:32:04.720Z,17.74
2022-10-11T12:34:37.854Z,17.75
2022-10-11T12:37:23.102Z,17.76
2022-10-11T12:39:54.674Z,17.77
2022-10-11T12:42:27.682Z,17.80
2022-10-11T12:45:22.418Z,17.82
2022-10-11T12:48:19.153Z,17.84
2022-10-11T12:50:55.592Z,17.88
2022-10-11T12:54:25.025Z,17.93
2022-10-11T12:56:56.818Z,18.00
2022-10-11T12:59:25.883Z,18.07
2022-10-11T13:01:58.815Z,18.12
2022-10-11T13:04:31.291Z,18.17
2022-10-11T13:07:07.079Z,18.18
2022-10-11T13:09:45.266Z,18.18
2022-10-11T13:12:20.238Z,18.22
2022-10-11T13:15:06.009Z,18.26
2022-10-11T13:17:38.871Z,18.29
2022-10-11T13:20:28.082Z,18.31
2022-10-11T13:22:57.973Z,18.31
2022-10-11T13:25:34.680Z,18.40
2022-10-11T13:28:02.584Z,18.45
2022-10-11T13:30:34.026Z,18.43
2022-10-11T13:33:09.981Z,18.46
2022-10-11T13:35:38.886Z,18.49
2022-10-11T13:38:26.511Z,18.48
2022-10-11T13:40:57.347Z,18.43
2022-10-11T13:43:28.603Z,18.41
2022-10-11T13:46:00.064Z,18.39
2022-10-11T13:48:31.900Z,18.38
2022-10-11T13:51:12.715Z,18.28
2022-10-11T13:54:00.749Z,18.18
2022-10-11T13:56:33.398Z,18.17
2022-10-11T13:59:01.596Z,18.16
2022-10-11T14:01:43.972Z,18.15
2022-10-11T14:04:16.931Z,18.15
2022-10-11T14:06:52.393Z,18.16
2022-10-11T14:09:25.922Z,18.15
2022-10-11T14:11:54.824Z,18.10
2022-10-11T14:14:41.101Z,18.10
2022-10-11T14:17:19.375Z,18.09
2022-10-11T14:20:10.158Z,18.07
2022-10-11T14:22:33.676Z,18.02
2022-10-11T14:25:01.228Z,17.98
2022-10-11T14:27:29.030Z,17.95
2022-10-11T14:30:20.250Z,17.93
2022-10-11T14:32:33.464Z,17.85
2022-10-11T14:35:01.361Z,17.75
2022-10-11T14:37:29.215Z,17.68
2022-10-11T14:39:56.993Z,17.63
2022-10-11T14:42:24.699Z,17.58
2022-10-11T14:44:52.411Z,17.50
2022-10-11T14:47:20.150Z,17.44
2022-10-11T14:49:47.942Z,17.38
2022-10-11T14:52:15.788Z,17.33
2022-10-11T14:54:44.097Z,17.28
2022-10-11T14:57:13.192Z,17.22
2022-10-11T14:59:40.936Z,17.15
2022-10-11T15:02:10.954Z,17.10
2022-10-11T15:04:38.872Z,17.02
2022-10-11T15:07:06.528Z,16.92
2022-10-11T15:09:33.982Z,16.84
2022-10-11T15:12:01.985Z,16.76
2022-10-11T15:14:29.673Z,16.70
2022-10-11T15:16:57.255Z,16.63
2022-10-11T15:19:25.290Z,16.56
2022-10-11T15:21:53.266Z,16.49
2022-10-11T15:24:21.429Z,16.40
2022-10-11T15:26:50.371Z,16.32
2022-10-11T15:29:19.888Z,16.21
2022-10-11T15:31:48.861Z,16.09
2022-10-11T15:34:17.069Z,15.95
2022-10-11T15:36:45.014Z,15.83
2022-10-11T15:39:33.376Z,15.72
2022-10-11T15:42:01.503Z,15.59
2022-10-11T15:44:29.221Z,15.46
2022-10-11T15:46:59.833Z,15.35
2022-10-11T15:49:33.433Z,15.21
2022-10-11T15:52:02.500Z,15.10
2022-10-11T15:54:30.113Z,14.95
2022-10-11T15:56:58.212Z,14.81
2022-10-11T15:59:28.395Z,14.65
2022-10-11T16:02:00.815Z,14.53
2022-10-11T16:04:31.695Z,14.37
2022-10-11T16:07:02.461Z,14.23
2022-10-11T16:09:40.691Z,14.10
2022-10-11T16:12:10.191Z,13.97
2022-10-11T16:14:38.195Z,13.83
2022-10-11T16:17:07.709Z,13.71
2022-10-11T16:19:37.648Z,13.60
2022-10-11T16:22:07.475Z,13.50
2022-10-11T16:24:35.506Z,13.40
2022-10-11T16:27:05.361Z,13.30
2022-10-11T16:29:32.815Z,13.24
2022-10-11T16:32:00.623Z,13.16
2022-10-11T16:34:30.046Z,13.11
2022-10-11T16:36:57.619Z,13.05
2022-10-11T16:39:25.267Z,12.99
2022-10-11T16:41:52.994Z,12.92
2022-10-11T16:44:27.334Z,12.86
2022-10-11T16:46:56.111Z,12.78
2022-10-11T16:49:27.713Z,12.70
2022-10-11T16:52:03.150Z,12.61
2022-10-11T16:54:31.246Z,12.53
2022-10-11T16:57:01.489Z,12.46
2022-10-11T16:59:29.821Z,12.37
2022-10-11T17:01:57.886Z,12.30
2022-10-11T17:04:25.858Z,12.25
2022-10-11T17:06:54.710Z,12.20
2022-10-11T17:09:22.489Z,12.13
2022-10-11T17:11:50.822Z,12.07
2022-10-11T17:14:20.993Z,12.00
2022-10-11T17:16:48.892Z,11.93
2022-10-11T17:19:16.631Z,11.85
2022-10-11T17:21:46.079Z,11.81
2022-10-11T17:24:15.478Z,11.75
2022-10-11T17:26:43.179Z,11.69
2022-10-11T17:29:16.313Z,11.64
2022-10-11T17:31:49.027Z,11.59
2022-10-11T17:34:17.007Z,11.56
2022-10-11T17:36:47.491Z,11.51
2022-10-11T17:39:23.698Z,11.45
2022-10-11T17:41:52.249Z,11.39
2022-10-11T17:44:21.192Z,11.34
2022-10-11T17:46:49.953Z,11.30
2022-10-11T17:49:18.187Z,11.26
2022-10-11T17:51:46.320Z,11.22
2022-10-11T17:54:14.327Z,11.18
2022-10-11T17:56:42.487Z,11.14
2022-10-11T17:59:17.483Z,11.09
2022-10-11T18:01:45.967Z,11.06
2022-10-11T18:04:19.069Z,10.99
2022-10-11T18:06:48.406Z,10.94
2022-10-11T18:09:20.652Z,10.89
2022-10-11T18:11:48.742Z,10.87
2022-10-11T18:14:16.835Z,10.83
2022-10-11T18:16:44.823Z,10.79
2022-10-11T18:19:15.001Z,10.75
2022-10-11T18:21:44.444Z,10.70
2022-10-11T18:24:15.249Z,10.66
2022-10-11T18:26:45.874Z,10.61
2022-10-11T18:29:15.945Z,10.56
2022-10-11T18:31:48.690Z,10.53
2022-10-11T18:34:16.325Z,10.48
2022-10-11T18:36:47.940Z,10.45
2022-10-11T18:39:15.855Z,10.41
2022-10-11T18:41:45.867Z,10.36
2022-10-11T18:44:15.197Z,10.31
2022-10-11T18:46:43.707Z,10.25
2022-10-11T18:49:11.865Z,10.19
2022-10-11T18:51:41.833Z,10.14
2022-10-11T18:54:14.092Z,10.10
2022-10-11T18:56:42.186Z,10.06
2022-10-11T18:59:10.438Z,10.02
2022-10-11T19:01:41.584Z,9.99
2022-10-11T19:04:13.000Z,9.95
2022-10-11T19:06:46.805Z,9.93
2022-10-11T19:09:22.007Z,9.92
2022-10-11T19:11:53.356Z,9.89
2022-10-11T19:14:25.760Z,9.89
2022-10-11T19:16:55.673Z,9.88
2022-10-11T19:19:27.197Z,9.87
2022-10-11T19:21:55.802Z,9.85
2022-10-11T19:24:26.448Z,9.86
2022-10-11T19:26:57.363Z,9.85
2022-10-11T19:29:28.268Z,9.86
2022-10-11T19:31:59.448Z,9.84
2022-10-11T19:34:29.459Z,9.82
2022-10-11T19:36:59.757Z,9.81
2022-10-11T19:39:28.998Z,9.81
2022-10-11T19:41:57.016Z,9.80
2022-10-11T19:44:24.834Z,9.81
2022-10-11T19:46:53.113Z,9.78
2022-10-11T19:49:24.375Z,9.77
2022-10-11T19:51:54.782Z,9.76
2022-10-11T19:54:23.005Z,9.75
2022-10-11T19:56:50.632Z,9.73
2022-10-11T19:59:21.552Z,9.71
2022-10-11T20:01:52.758Z,9.70
2022-10-11T20:04:46.958Z,9.67
2022-10-11T20:06:48.441Z,9.66
2022-10-11T20:09:28.969Z,9.63
2022-10-11T20:11:45.477Z,9.61
2022-10-11T20:14:13.081Z,9.58
2022-10-11T20:16:41.923Z,9.56
2022-10-11T20:19:09.656Z,9.57
2022-10-11T20:21:37.474Z,9.55
2022-10-11T20:24:07.160Z,9.54
2022-10-11T20:26:34.973Z,9.53
2022-10-11T20:29:02.855Z,9.51
2022-10-11T20:31:34.331Z,9.49
2022-10-11T20:34:04.570Z,9.46
2022-10-11T20:36:35.387Z,9.44
2022-10-11T20:39:04.919Z,9.42
2022-10-11T20:41:46.046Z,9.39
2022-10-11T20:44:15.484Z,9.37
2022-10-11T20:46:43.608Z,9.32
2022-10-11T20:49:13.135Z,9.28
2022-10-11T20:51:42.166Z,9.25
2022-10-11T20:54:10.443Z,9.23
2022-10-11T20:56:39.195Z,9.19
2022-10-11T20:59:07.511Z,9.17
2022-10-11T21:01:39.826Z,9.13
2022-10-11T21:04:12.012Z,9.10
2022-10-11T21:06:39.827Z,9.07
2022-10-11T21:09:09.370Z,9.05
2022-10-11T21:11:37.140Z,9.01
2022-10-11T21:14:06.269Z,8.97
2022-10-11T21:16:34.526Z,8.92
2022-10-11T21:19:03.560Z,8.84
2022-10-11T21:21:31.474Z,8.81
2022-10-11T21:24:01.977Z,8.80
2022-10-11T21:26:30.905Z,8.79
2022-10-11T21:28:59.051Z,8.77
2022-10-11T21:31:31.294Z,8.74
2022-10-11T21:33:58.569Z,8.72
2022-10-11T21:36:26.386Z,8.70
2022-10-11T21:38:54.296Z,8.69
2022-10-11T21:41:25.380Z,8.67
2022-10-11T21:43:53.302Z,8.65
2022-10-11T21:46:47.551Z,8.64
2022-10-11T21:48:57.981Z,8.63
2022-10-11T21:51:30.388Z,8.60
2022-10-11T21:54:00.597Z,8.58
2022-10-11T21:56:28.940Z,8.56
2022-10-11T21:58:56.582Z,8.57
2022-10-11T22:01:24.633Z,8.56
2022-10-11T22:03:54.179Z,8.54
2022-10-11T22:06:22.962Z,8.53
2022-10-11T22:08:52.249Z,8.51
2022-10-11T22:11:20.055Z,8.48
2022-10-11T22:13:48.969Z,8.48
2022-10-11T22:16:16.816Z,8.46
2022-10-11T22:18:44.246Z,8.45
2022-10-11T22:21:21.093Z,8.45
2022-10-11T22:23:51.087Z,8.44
2022-10-11T22:26:23.504Z,8.45
2022-10-11T22:28:52.892Z,8.46
2022-10-11T22:31:21.760Z,8.47
2022-10-11T22:33:54.453Z,8.49
2022-10-11T22:36:23.725Z,8.50
2022-10-11T22:38:52.102Z,8.51
2022-10-11T22:41:20.030Z,8.52
2022-10-11T22:43:47.709Z,8.52
2022-10-11T22:46:15.615Z,8.55
2022-10-11T22:48:43.398Z,8.56
2022-10-11T22:51:11.104Z,8.58
2022-10-11T22:53:39.336Z,8.60
2022-10-11T22:56:08.435Z,8.63
2022-10-11T22:58:36.479Z,8.65
2022-10-11T23:01:13.382Z,8.66
2022-10-11T23:03:41.438Z,8.69
2022-10-11T23:06:11.190Z,8.71
2022-10-11T23:08:38.937Z,8.75
2022-10-11T23:11:07.661Z,8.76
2022-10-11T23:13:35.499Z,8.78
2022-10-11T23:16:12.076Z,8.80
2022-10-11T23:18:39.952Z,8.82
2022-10-11T23:21:08.476Z,8.83
2022-10-11T23:23:36.170Z,8.82
2022-10-11T23:26:08.401Z,8.83
2022-10-11T23:28:36.571Z,8.82
2022-10-11T23:31:14.808Z,8.81
2022-10-11T23:33:44.195Z,8.82
2022-10-11T23:36:19.270Z,8.82
2022-10-11T23:38:56.644Z,8.79
2022-10-11T23:41:27.487Z,8.78
2022-10-11T23:43:55.743Z,8.79
2022-10-11T23:46:23.677Z,8.78
2022-10-11T23:48:51.275Z,8.77
2022-10-11T23:51:19.017Z,8.78
2022-10-11T23:53:46.652Z,8.80
2022-10-11T23:56:14.232Z,8.81
2022-10-11T23:58:42.250Z,8.81
